KJAC

Jackson Hole Airport

Airport
ICAO code
KJAC
IATA Code
JAC
Summary
ICAO Region
NAM
ICAO Territory
Location

Jackson Hole, Wyoming

Serving
Jackson
Elevation
6451 ft
Coordinates
43° 36' 29" N , 110° 44' 18" W
KCC
Metar
KJAC 152256Z VRB05KT 10SM FEW080 SCT120 24/11 A3024 RMK AO2 SLP181 T02390106

Public airport located 7 nm north of the central business district of Jackson, a town in Teton County, Wyoming, USA.

Airport map

Aerial View

SKYbrary Partners:

Safety knowledge contributed by: